createdAt,value
2023-12-09T00:00:51.466Z,7.0
2023-12-09T00:05:57.721Z,8.0
2023-12-09T00:11:03.807Z,8.0
2023-12-09T00:16:10.013Z,8.0
2023-12-09T00:21:16.244Z,7.0
2023-12-09T00:26:22.429Z,7.0
2023-12-09T00:31:28.645Z,7.0
2023-12-09T00:36:34.985Z,7.0
2023-12-09T00:41:41.077Z,7.0
2023-12-09T00:46:47.272Z,7.0
2023-12-09T00:51:52.496Z,6.0
2023-12-09T00:56:58.740Z,7.0
2023-12-09T01:02:04.900Z,7.0
2023-12-09T01:07:11.122Z,7.0
2023-12-09T01:12:17.363Z,7.0
2023-12-09T01:17:23.523Z,7.0
2023-12-09T01:22:30.055Z,6.0
2023-12-09T01:27:36.011Z,7.0
2023-12-09T01:32:42.335Z,7.0
2023-12-09T01:37:48.402Z,7.0
2023-12-09T01:48:00.939Z,7.0
2023-12-09T01:53:06.981Z,7.0
2023-12-09T01:58:13.204Z,7.0
2023-12-09T02:03:19.455Z,7.0
2023-12-09T02:08:25.614Z,7.0
2023-12-09T02:13:31.807Z,7.0
2023-12-09T02:18:38.108Z,7.0
2023-12-09T02:23:44.228Z,7.0
2023-12-09T02:28:50.675Z,7.0
2023-12-09T02:33:56.750Z,7.0
2023-12-09T02:39:02.877Z,7.0
2023-12-09T02:44:09.175Z,7.0
2023-12-09T02:49:15.383Z,7.0
2023-12-09T02:54:21.563Z,7.0
2023-12-09T02:59:27.809Z,7.0
2023-12-09T03:04:33.923Z,6.0
2023-12-09T03:09:40.099Z,7.0
2023-12-09T03:14:46.303Z,7.0
2023-12-09T03:19:52.641Z,6.0
2023-12-09T03:24:58.733Z,6.0
2023-12-09T03:30:05.012Z,7.0
2023-12-09T03:35:11.195Z,7.0
2023-12-09T03:40:17.361Z,6.0
2023-12-09T03:45:23.635Z,6.0
2023-12-09T03:50:29.766Z,7.0
2023-12-09T03:55:35.965Z,7.0
2023-12-09T04:00:42.290Z,7.0
2023-12-09T04:05:48.481Z,7.0
2023-12-09T04:10:54.595Z,7.0
2023-12-09T04:16:00.814Z,7.0
2023-12-09T04:21:07.040Z,6.0
2023-12-09T04:26:13.226Z,7.0
2023-12-09T04:31:19.429Z,6.0
2023-12-09T04:36:25.792Z,6.5
2023-12-09T04:41:31.864Z,6.0
2023-12-09T04:46:38.061Z,6.0
2023-12-09T04:51:44.270Z,6.0
2023-12-09T04:56:50.489Z,7.0
2023-12-09T05:01:56.709Z,6.0
2023-12-09T05:07:02.895Z,6.0
2023-12-09T05:12:09.119Z,5.0
2023-12-09T05:17:15.322Z,5.0
2023-12-09T05:22:21.530Z,5.0
2023-12-09T05:27:27.761Z,5.0
2023-12-09T05:32:34.060Z,5.0
2023-12-09T05:37:40.155Z,5.0
2023-12-09T05:42:46.407Z,5.0
2023-12-09T05:47:52.621Z,5.0
2023-12-09T05:53:02.142Z,6.0
2023-12-09T05:58:04.964Z,5.0
2023-12-09T06:03:11.271Z,5.0
2023-12-09T06:08:17.515Z,5.0
2023-12-09T06:13:23.608Z,5.0
2023-12-09T06:18:29.882Z,5.0
2023-12-09T06:23:35.037Z,5.0
2023-12-09T06:28:41.236Z,4.0
2023-12-09T06:33:47.579Z,4.0
2023-12-09T06:38:53.651Z,4.0
2023-12-09T06:43:59.857Z,4.0
2023-12-09T06:49:06.649Z,4.0
2023-12-09T06:54:12.306Z,4.0
2023-12-09T06:59:18.479Z,4.0
2023-12-09T07:04:24.773Z,4.0
2023-12-09T07:09:31.000Z,4.0
2023-12-09T07:14:37.113Z,4.0
2023-12-09T07:19:43.606Z,5.0
2023-12-09T07:24:49.692Z,4.0
2023-12-09T07:29:55.815Z,4.0
2023-12-09T07:35:02.103Z,4.0
2023-12-09T07:40:08.139Z,4.0
2023-12-09T07:45:14.584Z,4.0
2023-12-09T07:50:20.561Z,4.0
2023-12-09T07:55:26.755Z,4.0
2023-12-09T08:00:33.188Z,3.0
2023-12-09T08:05:39.220Z,3.0
2023-12-09T08:10:45.399Z,3.0
2023-12-09T08:15:51.609Z,3.0
2023-12-09T08:20:57.853Z,3.0
2023-12-09T08:31:10.223Z,3.0
2023-12-09T08:36:16.495Z,3.0
2023-12-09T08:41:22.657Z,3.0
2023-12-09T08:46:29.073Z,3.0
2023-12-09T08:51:35.068Z,3.0
2023-12-09T08:56:41.302Z,3.0
2023-12-09T09:01:47.477Z,3.0
2023-12-09T09:06:53.686Z,3.0
2023-12-09T09:11:59.905Z,3.0
2023-12-09T09:17:06.104Z,3.0
2023-12-09T09:22:12.307Z,3.0
2023-12-09T09:27:18.545Z,3.0
2023-12-09T09:32:24.885Z,3.0
2023-12-09T09:37:30.937Z,3.0
2023-12-09T09:42:37.156Z,3.0
2023-12-09T09:47:44.715Z,3.0
2023-12-09T09:52:49.549Z,2.0
2023-12-09T09:57:55.848Z,3.0
2023-12-09T10:03:04.272Z,2.0
2023-12-09T10:08:08.180Z,3.0
2023-12-09T10:13:14.382Z,3.0
2023-12-09T10:18:20.683Z,3.0
2023-12-09T10:23:26.798Z,3.0
2023-12-09T10:28:33.012Z,3.0
2023-12-09T10:33:39.351Z,2.0
2023-12-09T10:38:45.431Z,2.0
2023-12-09T10:43:51.640Z,2.0
2023-12-09T10:48:57.950Z,3.0
2023-12-09T10:54:04.076Z,3.0
2023-12-09T10:59:10.254Z,2.0
2023-12-09T11:04:16.721Z,2.0
2023-12-09T11:09:22.757Z,2.0
2023-12-09T11:14:28.879Z,2.0
2023-12-09T11:19:35.325Z,2.0
2023-12-09T11:24:41.336Z,2.0
2023-12-09T11:29:47.527Z,2.0
2023-12-09T11:34:53.706Z,2.0
2023-12-09T11:39:59.929Z,2.0
2023-12-09T11:45:06.140Z,2.0
2023-12-09T11:50:12.369Z,2.0
2023-12-09T11:55:17.567Z,2.0
2023-12-09T12:00:23.855Z,2.0
2023-12-09T12:05:30.032Z,2.0
2023-12-09T12:10:38.251Z,2.0
2023-12-09T12:15:42.426Z,2.0
2023-12-09T12:20:48.596Z,2.0
2023-12-09T12:25:53.832Z,1.0
2023-12-09T12:31:00.065Z,1.0
2023-12-09T12:36:06.304Z,1.0
2023-12-09T12:41:12.459Z,1.0
2023-12-09T12:46:18.664Z,1.0
2023-12-09T12:51:26.889Z,1.0
2023-12-09T12:56:31.082Z,1.0
2023-12-09T13:01:37.354Z,1.0
2023-12-09T13:06:43.560Z,1.0
2023-12-09T13:11:49.711Z,1.0
2023-12-09T13:16:55.983Z,1.0
2023-12-09T13:22:02.348Z,1.0
2023-12-09T13:27:08.365Z,1.0
2023-12-09T13:32:14.537Z,1.0
2023-12-09T13:37:20.747Z,1.0
2023-12-09T13:42:27.477Z,1.0
2023-12-09T13:47:33.203Z,1.0
2023-12-09T13:52:39.364Z,2.0
2023-12-09T13:57:45.678Z,1.0
2023-12-09T14:02:51.777Z,1.0
2023-12-09T14:07:57.987Z,1.0
2023-12-09T14:13:04.206Z,1.0
2023-12-09T14:18:10.503Z,1.0
2023-12-09T14:23:16.617Z,1.0
2023-12-09T14:28:22.957Z,1.0
2023-12-09T14:33:29.239Z,1.0
2023-12-09T14:38:35.365Z,1.0
2023-12-09T14:43:41.439Z,1.0
2023-12-09T14:48:47.941Z,1.0
2023-12-09T14:53:53.851Z,1.0
2023-12-09T14:59:00.057Z,1.0
2023-12-09T15:04:06.404Z,1.0
2023-12-09T15:09:12.480Z,1.0
2023-12-09T15:14:18.698Z,1.0
2023-12-09T15:19:25.045Z,1.0
2023-12-09T15:24:31.107Z,1.0
2023-12-09T15:29:37.323Z,1.0
2023-12-09T15:34:43.609Z,1.0
2023-12-09T15:39:49.769Z,1.0
2023-12-09T15:44:56.149Z,1.0
2023-12-09T15:50:02.138Z,1.0
2023-12-09T15:55:08.436Z,1.0
2023-12-09T16:00:14.873Z,1.0
2023-12-09T16:05:21.092Z,1.0
2023-12-09T16:10:26.966Z,1.0
2023-12-09T16:15:33.370Z,1.0
2023-12-09T16:20:39.385Z,1.0
2023-12-09T16:25:45.611Z,1.0
2023-12-09T16:30:51.879Z,1.0
2023-12-09T16:35:58.011Z,1.0
2023-12-09T16:41:04.213Z,1.0
2023-12-09T16:46:10.454Z,1.0
2023-12-09T16:51:16.663Z,1.0
2023-12-09T16:56:23.077Z,1.0
2023-12-09T17:01:29.105Z,1.0
2023-12-09T17:06:35.285Z,1.0
2023-12-09T17:11:41.467Z,1.0
2023-12-09T17:16:47.675Z,1.0
2023-12-09T17:21:53.899Z,1.0
2023-12-09T17:27:00.118Z,2.0
2023-12-09T17:32:06.310Z,1.0
2023-12-09T17:37:12.510Z,2.0
2023-12-09T17:42:18.772Z,2.0
2023-12-09T17:52:33.569Z,2.0
2023-12-09T17:57:36.395Z,2.0
2023-12-09T18:02:42.628Z,2.0
2023-12-09T18:07:48.802Z,3.0
2023-12-09T18:12:55.001Z,4.0
2023-12-09T18:18:01.259Z,3.0
2023-12-09T18:23:07.397Z,4.0
2023-12-09T18:28:13.591Z,5.0
2023-12-09T18:33:19.899Z,5.0
2023-12-09T18:38:26.036Z,5.0
2023-12-09T18:43:32.531Z,7.0
2023-12-09T18:53:44.650Z,10.0
2023-12-09T18:58:50.846Z,11.0
2023-12-09T19:03:57.276Z,11.0
2023-12-09T19:09:03.269Z,11.0
2023-12-09T19:14:09.473Z,10.0
2023-12-09T19:19:15.879Z,6.0
2023-12-09T19:29:28.234Z,4.0
2023-12-09T19:34:34.488Z,4.0
2023-12-09T19:39:40.684Z,4.0
2023-12-09T19:44:46.948Z,4.0
2023-12-09T19:49:53.157Z,4.0
2023-12-09T19:54:59.136Z,4.0
2023-12-09T20:00:05.572Z,4.0
2023-12-09T20:05:11.567Z,4.0
2023-12-09T20:10:17.881Z,4.0
2023-12-09T20:15:24.006Z,4.0
2023-12-09T20:20:30.509Z,4.0
2023-12-09T20:25:36.397Z,4.0
2023-12-09T20:30:42.739Z,4.0
2023-12-09T20:35:48.806Z,4.0
2023-12-09T20:40:55.168Z,4.0
2023-12-09T20:46:01.244Z,5.0
2023-12-09T20:51:07.581Z,4.0
2023-12-09T20:56:13.653Z,4.0
2023-12-09T21:01:20.096Z,4.0
2023-12-09T21:06:26.076Z,4.0
2023-12-09T21:11:35.611Z,4.0
2023-12-09T21:21:44.853Z,5.0
2023-12-09T21:26:50.892Z,4.0
2023-12-09T21:31:57.231Z,4.0
2023-12-09T21:37:03.451Z,4.0
2023-12-09T21:42:09.744Z,4.0
2023-12-09T21:47:15.865Z,5.0
2023-12-09T21:52:21.954Z,5.0
2023-12-09T21:57:28.329Z,5.0
2023-12-09T22:02:34.396Z,4.0
2023-12-09T22:07:40.692Z,4.0
2023-12-09T22:12:46.822Z,5.0
2023-12-09T22:17:53.156Z,4.0
2023-12-09T22:22:59.619Z,5.0
2023-12-09T22:28:05.536Z,5.0
2023-12-09T22:33:11.707Z,5.0
2023-12-09T22:38:17.934Z,4.0
2023-12-09T22:43:24.036Z,4.0
2023-12-09T22:48:30.568Z,4.0
2023-12-09T22:53:36.435Z,4.0
2023-12-09T22:58:42.874Z,5.0
2023-12-09T23:03:48.913Z,5.0
2023-12-09T23:08:55.199Z,5.0
2023-12-09T23:14:01.296Z,5.0
2023-12-09T23:19:07.731Z,5.0
2023-12-09T23:24:13.720Z,5.0
2023-12-09T23:29:19.046Z,5.0
2023-12-09T23:34:25.207Z,4.0
2023-12-09T23:39:31.508Z,4.0
2023-12-09T23:44:37.534Z,5.0
2023-12-09T23:49:43.886Z,5.0
2023-12-09T23:54:50.075Z,5.0
2023-12-09T23:59:56.293Z,5.0
